createdAt,value
2018-09-24T04:00:34.793Z,7.08
2018-09-24T04:01:34.773Z,7.05
2018-09-24T04:02:34.760Z,7.12
2018-09-24T04:03:34.779Z,7.08
2018-09-24T04:04:34.736Z,7.04
2018-09-24T04:05:34.741Z,6.97
2018-09-24T04:06:34.714Z,7.04
2018-09-24T04:07:34.704Z,6.96
2018-09-24T04:08:34.700Z,6.99
2018-09-24T04:09:35.168Z,6.86
2018-09-24T04:10:34.684Z,6.86
2018-09-24T04:11:34.661Z,6.86
2018-09-24T04:12:34.652Z,6.86
2018-09-24T04:13:34.660Z,6.81
2018-09-24T04:14:34.627Z,6.82
2018-09-24T04:15:34.636Z,6.82
2018-09-24T04:16:34.601Z,6.78
2018-09-24T04:17:34.717Z,6.76
2018-09-24T04:18:34.582Z,6.79
2018-09-24T04:19:34.600Z,6.79
2018-09-24T04:20:34.569Z,6.86
2018-09-24T04:21:34.548Z,6.87
2018-09-24T04:22:34.540Z,6.78
2018-09-24T04:23:34.528Z,6.79
2018-09-24T04:24:34.517Z,6.68
2018-09-24T04:25:34.514Z,6.78
2018-09-24T04:26:34.491Z,6.79
2018-09-24T04:27:34.484Z,6.79
2018-09-24T04:28:34.472Z,6.76
2018-09-24T04:29:34.461Z,6.65
2018-09-24T04:30:34.460Z,6.78
2018-09-24T04:31:34.475Z,6.79
2018-09-24T04:32:34.528Z,6.86
2018-09-24T04:33:34.868Z,6.82
2018-09-24T04:34:34.404Z,6.69
2018-09-24T04:35:34.405Z,6.81
2018-09-24T04:36:34.381Z,6.83
2018-09-24T04:37:34.374Z,6.82
2018-09-24T04:38:34.358Z,6.89
2018-09-24T04:39:34.530Z,6.82
2018-09-24T04:40:34.352Z,6.96
2018-09-24T04:41:34.740Z,6.91
2018-09-24T04:42:34.320Z,6.86
2018-09-24T04:43:34.302Z,6.99
2018-09-24T04:44:34.489Z,6.94
2018-09-24T04:45:34.295Z,6.91
2018-09-24T04:46:34.400Z,6.97
2018-09-24T04:47:34.265Z,7.00
2018-09-24T04:48:34.256Z,6.97
2018-09-24T04:49:34.242Z,7.00
2018-09-24T04:50:34.247Z,7.01
2018-09-24T04:51:34.219Z,6.96
2018-09-24T04:52:34.208Z,6.97
2018-09-24T04:53:34.451Z,6.96
2018-09-24T04:54:34.277Z,7.00
2018-09-24T04:55:34.186Z,6.99
2018-09-24T04:56:34.167Z,6.99
2018-09-24T04:57:34.155Z,7.00
2018-09-24T04:58:34.186Z,6.99
2018-09-24T04:59:34.129Z,7.08
2018-09-24T05:00:34.135Z,7.11
2018-09-24T05:01:34.112Z,7.00
2018-09-24T05:02:34.094Z,7.11
2018-09-24T05:03:34.378Z,7.07
2018-09-24T05:04:34.077Z,7.14
2018-09-24T05:05:34.215Z,7.12
2018-09-24T05:06:34.118Z,7.07
2018-09-24T05:07:34.219Z,7.11
2018-09-24T05:08:34.036Z,7.11
2018-09-24T05:09:34.024Z,7.00
2018-09-24T05:10:34.025Z,7.01
2018-09-24T05:11:34.000Z,7.12
2018-09-24T05:12:33.997Z,7.05
2018-09-24T05:13:34.018Z,7.05
2018-09-24T05:14:33.970Z,7.12
2018-09-24T05:15:33.963Z,7.15
2018-09-24T05:16:33.988Z,7.08
2018-09-24T05:17:33.932Z,7.09
2018-09-24T05:18:33.927Z,7.09
2018-09-24T05:19:33.916Z,7.14
2018-09-24T05:20:34.220Z,7.23
2018-09-24T05:21:33.879Z,7.19
2018-09-24T05:22:33.884Z,7.21
2018-09-24T05:23:33.943Z,7.27
2018-09-24T05:24:33.857Z,7.29
2018-09-24T05:25:33.860Z,7.27
2018-09-24T05:26:33.838Z,7.24
2018-09-24T05:27:33.827Z,7.24
2018-09-24T05:28:33.812Z,7.27
2018-09-24T05:29:33.804Z,7.19
2018-09-24T05:30:33.805Z,7.30
2018-09-24T05:31:33.782Z,7.27
2018-09-24T05:32:33.771Z,7.26
2018-09-24T05:33:33.759Z,7.32
2018-09-24T05:34:33.852Z,7.26
2018-09-24T05:35:33.757Z,7.30
2018-09-24T05:36:33.725Z,7.23
2018-09-24T05:37:33.719Z,7.24
2018-09-24T05:38:33.706Z,7.37
2018-09-24T05:39:33.695Z,7.34
2018-09-24T05:40:33.692Z,7.42
2018-09-24T05:41:33.664Z,7.21
2018-09-24T05:42:33.668Z,7.21
2018-09-24T05:43:33.650Z,7.27
2018-09-24T05:44:33.635Z,7.26
2018-09-24T05:45:33.754Z,7.32
2018-09-24T05:46:33.621Z,7.23
2018-09-24T05:47:33.601Z,7.39
2018-09-24T05:48:33.605Z,7.44
2018-09-24T05:49:33.581Z,7.42
2018-09-24T05:50:33.589Z,7.47
2018-09-24T05:51:33.558Z,7.41
2018-09-24T05:52:33.551Z,7.45
2018-09-24T05:53:33.541Z,7.51
2018-09-24T05:54:33.546Z,7.45
2018-09-24T05:55:33.531Z,7.55
2018-09-24T05:56:33.507Z,7.51
2018-09-24T05:57:33.496Z,7.60
2018-09-24T05:58:33.487Z,7.63
2018-09-24T05:59:33.491Z,7.71
2018-09-24T06:00:33.471Z,7.71
2018-09-24T06:01:33.454Z,7.63
2018-09-24T06:02:33.431Z,7.70
2018-09-24T06:03:33.430Z,7.66
2018-09-24T06:04:33.418Z,7.70
2018-09-24T06:05:33.440Z,7.55
2018-09-24T06:06:33.396Z,7.57
2018-09-24T06:07:33.386Z,7.51
2018-09-24T06:08:33.374Z,7.60
2018-09-24T06:09:33.359Z,7.67
2018-09-24T06:10:33.351Z,7.70
2018-09-24T06:11:33.357Z,7.74
2018-09-24T06:12:33.338Z,7.76
2018-09-24T06:13:33.354Z,7.71
2018-09-24T06:14:33.307Z,7.67
2018-09-24T06:15:33.293Z,7.55
2018-09-24T06:16:33.295Z,7.70
2018-09-24T06:17:33.588Z,7.70
2018-09-24T06:18:33.265Z,7.71
2018-09-24T06:19:33.254Z,7.67
2018-09-24T06:20:33.242Z,7.69
2018-09-24T06:21:33.239Z,7.74
2018-09-24T06:22:33.671Z,7.69
2018-09-24T06:23:33.210Z,7.76
2018-09-24T06:24:33.785Z,7.84
2018-09-24T06:25:33.408Z,7.92
2018-09-24T06:26:33.187Z,7.92
2018-09-24T06:27:33.163Z,7.99
2018-09-24T06:28:33.666Z,8.04
2018-09-24T06:29:33.152Z,8.06
2018-09-24T06:30:33.132Z,8.04
2018-09-24T06:31:33.141Z,8.07
2018-09-24T06:32:33.114Z,8.06
2018-09-24T06:33:33.231Z,8.07
2018-09-24T06:34:33.083Z,8.07
2018-09-24T06:35:33.440Z,8.13
2018-09-24T06:36:33.690Z,8.10
2018-09-24T06:37:33.062Z,8.12
2018-09-24T06:38:33.049Z,7.99
2018-09-24T06:39:33.030Z,8.00
2018-09-24T06:40:33.130Z,8.07
2018-09-24T06:41:33.024Z,8.12
2018-09-24T06:42:32.996Z,8.06
2018-09-24T06:43:33.042Z,8.07
2018-09-24T06:44:33.152Z,8.10
2018-09-24T06:45:32.972Z,8.03
2018-09-24T06:46:32.985Z,8.13
2018-09-24T06:47:32.939Z,8.13
2018-09-24T06:48:32.940Z,8.20
2018-09-24T06:49:32.920Z,8.29
2018-09-24T06:50:32.960Z,8.29
2018-09-24T06:51:32.923Z,8.42
2018-09-24T06:52:32.887Z,8.42
2018-09-24T06:53:32.880Z,8.46
2018-09-24T06:54:32.864Z,8.50
2018-09-24T06:55:32.854Z,8.57
2018-09-24T06:56:32.854Z,8.57
2018-09-24T06:57:32.831Z,8.57
2018-09-24T06:58:32.811Z,8.63
2018-09-24T06:59:32.821Z,8.63
2018-09-24T07:00:32.801Z,8.64
2018-09-24T07:01:32.802Z,8.60
2018-09-24T07:02:32.782Z,8.68
2018-09-24T07:03:32.767Z,8.73
2018-09-24T07:04:32.752Z,8.71
2018-09-24T07:05:32.908Z,8.64
2018-09-24T07:06:32.743Z,8.85
2018-09-24T07:07:32.722Z,8.70
2018-09-24T07:08:32.702Z,8.80
2018-09-24T07:09:32.701Z,8.94
2018-09-24T07:10:32.692Z,9.26
2018-09-24T07:11:32.688Z,9.27
2018-09-24T07:12:32.672Z,9.32
2018-09-24T07:13:32.662Z,9.32
2018-09-24T07:14:32.651Z,9.34
2018-09-24T07:15:32.835Z,9.37
2018-09-24T07:16:32.692Z,9.37
2018-09-24T07:17:32.618Z,9.38
2018-09-24T07:18:32.606Z,9.53
2018-09-24T07:19:32.629Z,9.44
2018-09-24T07:20:32.584Z,9.41
2018-09-24T07:21:32.665Z,9.41
2018-09-24T07:22:32.561Z,9.32
2018-09-24T07:23:32.545Z,9.34
2018-09-24T07:24:32.544Z,9.27
2018-09-24T07:25:33.141Z,9.42
2018-09-24T07:26:32.542Z,9.38
2018-09-24T07:27:32.535Z,9.58
2018-09-24T07:28:32.896Z,9.55
2018-09-24T07:29:33.858Z,9.53
2018-09-24T07:30:32.480Z,9.65
2018-09-24T07:31:32.470Z,9.63
2018-09-24T07:32:32.467Z,9.80
2018-09-24T07:33:32.440Z,9.81
2018-09-24T07:34:32.432Z,9.96
2018-09-24T07:35:32.420Z,10.13
2018-09-24T07:36:33.017Z,10.22
2018-09-24T07:37:32.968Z,10.09
2018-09-24T07:38:32.388Z,10.06
2018-09-24T07:39:32.884Z,10.04
2018-09-24T07:40:32.365Z,9.98
2018-09-24T07:41:32.366Z,9.78
2018-09-24T07:42:32.352Z,9.63
2018-09-24T07:43:32.331Z,9.68
2018-09-24T07:44:32.314Z,9.65
2018-09-24T07:45:32.304Z,9.83
2018-09-24T07:46:32.306Z,9.88
2018-09-24T07:47:32.293Z,10.16
2018-09-24T07:48:32.274Z,10.04
2018-09-24T07:49:32.263Z,10.02
2018-09-24T07:50:32.883Z,10.07
2018-09-24T07:51:32.252Z,10.28
2018-09-24T07:52:32.230Z,10.34
2018-09-24T07:53:32.219Z,10.34
2018-09-24T07:54:32.210Z,10.55
2018-09-24T07:55:32.198Z,10.51
2018-09-24T07:56:32.187Z,10.51
2018-09-24T07:57:32.172Z,10.36
2018-09-24T07:58:32.163Z,10.26
2018-09-24T07:59:32.152Z,10.17
2018-09-24T08:00:32.133Z,10.28
2018-09-24T08:01:32.136Z,10.39
2018-09-24T08:02:32.111Z,10.55
2018-09-24T08:03:32.786Z,11.03
2018-09-24T08:04:32.085Z,10.91
2018-09-24T08:05:32.081Z,10.78
2018-09-24T08:06:32.083Z,10.72
2018-09-24T08:07:32.112Z,10.70
2018-09-24T08:08:32.043Z,10.69
2018-09-24T08:09:32.032Z,10.68
2018-09-24T08:10:32.021Z,11.06
2018-09-24T08:11:32.045Z,10.99
2018-09-24T08:12:31.994Z,10.98
2018-09-24T08:13:31.983Z,10.70
2018-09-24T08:14:31.971Z,10.54
2018-09-24T08:15:31.955Z,10.76
2018-09-24T08:16:31.940Z,10.68
2018-09-24T08:17:31.961Z,10.78
2018-09-24T08:18:31.930Z,10.86
2018-09-24T08:19:31.915Z,11.17
2018-09-24T08:20:32.003Z,11.21
2018-09-24T08:21:31.888Z,11.13
2018-09-24T08:22:31.886Z,11.41
2018-09-24T08:23:31.869Z,11.69
2018-09-24T08:24:31.859Z,11.77
2018-09-24T08:25:31.851Z,11.82
2018-09-24T08:26:31.827Z,12.11
2018-09-24T08:27:32.049Z,12.38
2018-09-24T08:28:31.817Z,12.55
2018-09-24T08:29:31.805Z,12.38
2018-09-24T08:30:31.789Z,12.04
2018-09-24T08:31:31.856Z,11.72
2018-09-24T08:32:31.785Z,11.42
2018-09-24T08:33:31.762Z,11.62
2018-09-24T08:34:31.748Z,11.16
2018-09-24T08:35:31.726Z,10.90
2018-09-24T08:36:31.720Z,10.87
2018-09-24T08:37:31.722Z,11.16
2018-09-24T08:38:31.763Z,11.24
2018-09-24T08:39:31.688Z,11.26
2018-09-24T08:40:31.680Z,11.03
2018-09-24T08:41:31.694Z,11.16
2018-09-24T08:42:31.663Z,11.51
2018-09-24T08:43:31.651Z,11.75
2018-09-24T08:44:31.627Z,11.70
2018-09-24T08:45:31.621Z,11.49
2018-09-24T08:46:31.609Z,11.49
2018-09-24T08:47:31.605Z,12.01
2018-09-24T08:48:31.586Z,12.21
2018-09-24T08:49:31.575Z,12.22
2018-09-24T08:50:31.566Z,12.18
2018-09-24T08:51:31.552Z,12.34
2018-09-24T08:52:31.545Z,12.41
2018-09-24T08:53:31.527Z,12.56
2018-09-24T08:54:31.581Z,12.67
2018-09-24T08:55:31.507Z,12.41
2018-09-24T08:56:31.494Z,12.21
2018-09-24T08:57:31.485Z,12.03
2018-09-24T08:58:31.472Z,11.96
2018-09-24T08:59:31.453Z,11.90
2018-09-24T09:00:31.456Z,12.11
2018-09-24T09:01:31.440Z,12.44
2018-09-24T09:02:31.464Z,12.59
2018-09-24T09:03:31.413Z,12.37
2018-09-24T09:04:31.414Z,12.34
2018-09-24T09:05:31.391Z,12.48
2018-09-24T09:06:31.375Z,12.43
2018-09-24T09:07:31.380Z,12.43
2018-09-24T09:08:31.357Z,12.62
2018-09-24T09:09:31.338Z,12.74
2018-09-24T09:10:31.335Z,12.76
2018-09-24T09:11:31.318Z,12.54
2018-09-24T09:12:31.315Z,12.48
2018-09-24T09:13:31.301Z,12.18
2018-09-24T09:14:31.292Z,12.26
2018-09-24T09:15:31.277Z,12.36
2018-09-24T09:16:31.371Z,12.05
2018-09-24T09:17:32.044Z,11.97
2018-09-24T09:18:31.240Z,11.85
2018-09-24T09:19:31.232Z,11.84
2018-09-24T09:20:31.216Z,11.63
2018-09-24T09:21:31.214Z,11.60
2018-09-24T09:22:31.209Z,11.72
2018-09-24T09:23:31.184Z,11.51
2018-09-24T09:24:31.172Z,11.27
2018-09-24T09:25:31.166Z,11.28
2018-09-24T09:26:31.154Z,11.16
2018-09-24T09:27:31.154Z,11.23
2018-09-24T09:28:31.122Z,11.33
2018-09-24T09:29:31.242Z,11.35
2018-09-24T09:30:31.104Z,11.49
2018-09-24T09:31:31.093Z,11.56
2018-09-24T09:32:31.098Z,11.66
2018-09-24T09:33:31.071Z,11.81
2018-09-24T09:34:31.064Z,11.94
2018-09-24T09:35:31.043Z,11.90
2018-09-24T09:36:31.127Z,11.84
2018-09-24T09:37:31.040Z,11.84
2018-09-24T09:38:31.022Z,11.93
2018-09-24T09:39:31.003Z,11.97
2018-09-24T09:40:30.995Z,12.01
2018-09-24T09:41:30.976Z,12.12
2018-09-24T09:42:30.987Z,12.23
2018-09-24T09:43:30.961Z,12.18
2018-09-24T09:44:30.952Z,12.18
2018-09-24T09:45:30.939Z,12.36
2018-09-24T09:46:30.927Z,12.22
2018-09-24T09:47:30.928Z,12.23
2018-09-24T09:48:30.905Z,12.11
2018-09-24T09:49:30.893Z,11.87
2018-09-24T09:50:30.879Z,11.63
2018-09-24T09:51:30.869Z,11.64
2018-09-24T09:52:30.868Z,11.74
2018-09-24T09:53:30.849Z,11.66
2018-09-24T09:54:30.837Z,11.66
2018-09-24T09:55:30.826Z,11.69
2018-09-24T09:56:30.822Z,11.75
2018-09-24T09:57:30.816Z,11.78
2018-09-24T09:58:30.787Z,11.79
2018-09-24T09:59:30.786Z,11.70
2018-09-24T10:00:30.769Z,11.70
2018-09-24T10:01:30.932Z,11.60
2018-09-24T10:02:30.841Z,11.64
2018-09-24T10:03:30.782Z,11.54
2018-09-24T10:04:30.723Z,11.62
2018-09-24T10:05:30.712Z,11.62
2018-09-24T10:06:30.697Z,11.77
2018-09-24T10:07:30.712Z,11.69
2018-09-24T10:08:31.367Z,11.67
2018-09-24T10:09:31.894Z,11.66
2018-09-24T10:10:30.656Z,11.82
2018-09-24T10:11:30.650Z,11.88
2018-09-24T10:12:30.647Z,11.96
2018-09-24T10:13:30.628Z,12.07
2018-09-24T10:14:30.611Z,12.01
2018-09-24T10:15:30.604Z,12.04
2018-09-24T10:16:30.592Z,12.04
2018-09-24T10:17:30.605Z,12.04
2018-09-24T10:18:30.571Z,12.03
2018-09-24T10:19:30.558Z,12.01
2018-09-24T10:20:30.549Z,12.04
2018-09-24T10:21:30.532Z,12.00
2018-09-24T10:22:30.528Z,12.19
2018-09-24T10:23:30.521Z,12.21
2018-09-24T10:24:30.502Z,12.36
2018-09-24T10:25:30.486Z,12.36
2018-09-24T10:26:30.479Z,12.38
2018-09-24T10:27:30.468Z,12.37
2018-09-24T10:28:30.469Z,12.37
2018-09-24T10:29:30.446Z,12.37
2018-09-24T10:30:30.435Z,12.43
2018-09-24T10:31:30.424Z,12.36
2018-09-24T10:32:30.411Z,12.34
2018-09-24T10:33:30.422Z,12.22
2018-09-24T10:34:30.385Z,12.21
2018-09-24T10:35:30.375Z,12.15
2018-09-24T10:36:30.367Z,12.16
2018-09-24T10:37:30.356Z,12.19
2018-09-24T10:38:30.356Z,12.26
2018-09-24T10:39:30.344Z,12.26
2018-09-24T10:40:30.323Z,12.21
2018-09-24T10:41:30.311Z,12.07
2018-09-24T10:42:30.301Z,11.94
2018-09-24T10:43:30.295Z,11.96
2018-09-24T10:44:30.276Z,11.72
2018-09-24T10:45:30.261Z,11.74
2018-09-24T10:46:30.254Z,11.72
2018-09-24T10:47:30.248Z,11.70
2018-09-24T10:48:30.240Z,11.77
2018-09-24T10:49:30.220Z,11.90
2018-09-24T10:50:30.209Z,12.04
2018-09-24T10:51:30.199Z,12.04
2018-09-24T10:52:30.187Z,12.08
2018-09-24T10:53:30.187Z,12.00
2018-09-24T10:54:30.167Z,12.00
2018-09-24T10:55:30.153Z,12.01
2018-09-24T10:56:30.145Z,12.15
2018-09-24T10:57:30.130Z,12.08
2018-09-24T10:58:30.126Z,12.08
2018-09-24T10:59:30.191Z,11.98
2018-09-24T11:00:30.101Z,11.93
2018-09-24T11:01:30.084Z,11.94
2018-09-24T11:02:30.078Z,11.84
2018-09-24T11:03:30.078Z,11.82
2018-09-24T11:04:30.052Z,11.75
2018-09-24T11:05:30.039Z,11.77
2018-09-24T11:06:30.032Z,11.84
2018-09-24T11:07:30.009Z,11.87
2018-09-24T11:08:30.021Z,11.90
2018-09-24T11:09:29.994Z,11.87
2018-09-24T11:10:29.989Z,11.82
2018-09-24T11:11:29.975Z,11.96
2018-09-24T11:12:29.964Z,11.96
2018-09-24T11:13:29.960Z,11.88
2018-09-24T11:14:29.941Z,11.97
2018-09-24T11:15:29.930Z,12.13
2018-09-24T11:16:30.114Z,12.23
2018-09-24T11:17:30.140Z,12.46
2018-09-24T11:18:29.910Z,12.49
2018-09-24T11:19:29.881Z,12.62
2018-09-24T11:20:29.872Z,12.69
2018-09-24T11:21:29.870Z,12.69
2018-09-24T11:22:29.850Z,12.66
2018-09-24T11:23:29.880Z,12.71
2018-09-24T11:24:29.832Z,12.71
2018-09-24T11:25:29.825Z,12.69
2018-09-24T11:27:29.795Z,12.67
2018-09-24T11:28:29.796Z,12.84
2018-09-24T11:29:29.840Z,12.84
2018-09-24T11:30:29.768Z,12.79
2018-09-24T11:31:29.757Z,12.94
2018-09-24T11:32:29.748Z,13.03
2018-09-24T11:33:29.742Z,13.10
2018-09-24T11:34:29.719Z,13.25
2018-09-24T11:35:29.701Z,13.35
2018-09-24T11:36:29.696Z,13.46
2018-09-24T11:37:29.690Z,13.36
2018-09-24T11:38:29.710Z,13.14
2018-09-24T11:39:29.668Z,13.10
2018-09-24T11:40:29.650Z,12.98
2018-09-24T11:41:29.640Z,12.89
2018-09-24T11:42:29.629Z,12.92
2018-09-24T11:43:29.634Z,12.74
2018-09-24T11:44:29.607Z,12.56
2018-09-24T11:45:29.596Z,12.51
2018-09-24T11:46:29.592Z,12.41
2018-09-24T11:47:29.573Z,12.43
2018-09-24T11:48:29.579Z,12.41
2018-09-24T11:49:29.551Z,12.48
2018-09-24T11:50:29.531Z,12.49
2018-09-24T11:51:29.525Z,12.38
2018-09-24T11:52:29.516Z,12.34
2018-09-24T11:53:29.516Z,12.37
2018-09-24T11:54:29.494Z,12.31
2018-09-24T11:55:29.484Z,12.18
2018-09-24T11:56:29.471Z,12.13
2018-09-24T11:57:29.464Z,12.13
2018-09-24T11:58:29.460Z,12.21
2018-09-24T11:59:29.449Z,12.31
2018-09-24T12:00:29.430Z,12.33
2018-09-24T12:01:29.441Z,12.41
2018-09-24T12:02:29.474Z,12.44
2018-09-24T12:03:29.412Z,12.56
2018-09-24T12:04:29.385Z,12.49
2018-09-24T12:05:29.374Z,12.67
2018-09-24T12:06:29.366Z,12.62
2018-09-24T12:07:29.351Z,12.58
2018-09-24T12:08:29.352Z,12.66
2018-09-24T12:09:29.325Z,12.67
2018-09-24T12:10:29.361Z,12.70
2018-09-24T12:11:29.305Z,12.70
2018-09-24T12:12:29.298Z,12.80
2018-09-24T12:13:29.295Z,12.79
2018-09-24T12:14:29.269Z,12.76
2018-09-24T12:15:29.253Z,12.73
2018-09-24T12:16:29.246Z,12.62
2018-09-24T12:17:29.234Z,12.52
2018-09-24T12:18:29.239Z,12.49
2018-09-24T12:19:29.216Z,12.49
2018-09-24T12:20:29.217Z,12.51
2018-09-24T12:21:29.177Z,12.43
2018-09-24T12:22:29.183Z,12.44
2018-09-24T12:23:29.204Z,12.44
2018-09-24T12:24:29.172Z,12.44
2018-09-24T12:25:29.149Z,12.51
2018-09-24T12:26:29.151Z,12.58
2018-09-24T12:27:29.126Z,12.46
2018-09-24T12:28:29.104Z,12.44
2018-09-24T12:29:29.122Z,12.51
2018-09-24T12:30:29.103Z,12.37
2018-09-24T12:31:29.090Z,12.15
2018-09-24T12:32:29.130Z,11.70
2018-09-24T12:33:29.059Z,11.20
2018-09-24T12:34:29.052Z,10.81
2018-09-24T12:35:29.038Z,10.68
2018-09-24T12:36:29.024Z,10.47
2018-09-24T12:37:29.116Z,10.24
2018-09-24T12:38:29.100Z,9.99
2018-09-24T12:39:29.004Z,9.83
2018-09-24T12:40:28.984Z,9.91
2018-09-24T12:41:28.968Z,9.88
2018-09-24T12:42:28.963Z,9.92
2018-09-24T12:43:28.933Z,10.06
2018-09-24T12:44:28.946Z,10.01
2018-09-24T12:45:28.923Z,9.98
2018-09-24T12:46:28.960Z,9.96
2018-09-24T12:47:28.960Z,10.04
2018-09-24T12:48:28.893Z,10.06
2018-09-24T12:49:29.040Z,10.13
2018-09-24T12:50:28.871Z,10.20
2018-09-24T12:51:28.860Z,10.14
2018-09-24T12:52:28.848Z,10.20
2018-09-24T12:53:28.860Z,10.26
2018-09-24T12:54:28.841Z,10.32
2018-09-24T12:55:28.813Z,10.35
2018-09-24T12:56:28.807Z,10.44
2018-09-24T12:57:28.779Z,10.51
2018-09-24T12:58:28.781Z,10.44
2018-09-24T12:59:28.792Z,10.60
2018-09-24T13:00:28.763Z,10.60
2018-09-24T13:01:28.780Z,10.70
2018-09-24T13:02:28.792Z,10.68
2018-09-24T13:03:28.724Z,10.70
2018-09-24T13:04:28.727Z,10.76
2018-09-24T13:05:28.706Z,10.75
2018-09-24T13:06:28.696Z,10.70
2018-09-24T13:07:28.686Z,10.81
2018-09-24T13:08:28.757Z,10.86
2018-09-24T13:09:28.667Z,10.72
2018-09-24T13:10:28.649Z,10.73
2018-09-24T13:11:28.638Z,10.73
2018-09-24T13:12:28.632Z,11.06
2018-09-24T13:13:28.742Z,11.30
2018-09-24T13:14:28.607Z,11.45
2018-09-24T13:15:28.594Z,11.63
2018-09-24T13:16:28.582Z,11.66
2018-09-24T13:17:28.594Z,11.63
2018-09-24T13:18:28.557Z,11.93
2018-09-24T13:19:28.556Z,11.90
2018-09-24T13:20:28.577Z,11.98
2018-09-24T13:21:28.525Z,12.16
2018-09-24T13:22:28.513Z,12.26
2018-09-24T13:23:28.499Z,12.46
2018-09-24T13:24:28.485Z,12.48
2018-09-24T13:25:28.483Z,12.49
2018-09-24T13:26:28.469Z,12.54
2018-09-24T13:27:28.457Z,12.56
2018-09-24T13:28:28.450Z,12.59
2018-09-24T13:29:28.448Z,12.55
2018-09-24T13:30:28.422Z,12.58
2018-09-24T13:31:28.415Z,12.44
2018-09-24T13:32:28.405Z,12.33
2018-09-24T13:33:28.393Z,12.33
2018-09-24T13:34:28.390Z,12.37
2018-09-24T13:35:28.372Z,12.34
2018-09-24T13:36:28.358Z,12.37
2018-09-24T13:37:28.360Z,12.48
2018-09-24T13:38:28.337Z,12.41
2018-09-24T13:39:28.342Z,12.43
2018-09-24T13:40:28.314Z,12.51
2018-09-24T13:41:28.299Z,12.52
2018-09-24T13:42:28.292Z,12.59
2018-09-24T13:43:28.336Z,12.59
2018-09-24T13:44:28.276Z,12.59
2018-09-24T13:45:28.258Z,12.70
2018-09-24T13:46:28.243Z,12.76
2018-09-24T13:47:28.234Z,12.74
2018-09-24T13:48:28.218Z,12.89
2018-09-24T13:49:28.269Z,12.96
2018-09-24T13:50:28.201Z,12.99
2018-09-24T13:51:28.190Z,13.01
2018-09-24T13:52:28.176Z,12.99
2018-09-24T13:53:28.214Z,13.04
2018-09-24T13:54:28.167Z,13.07
2018-09-24T13:55:28.140Z,13.10
2018-09-24T13:56:28.141Z,13.10
2018-09-24T13:57:28.123Z,13.09
2018-09-24T13:58:28.164Z,13.17
2018-09-24T13:59:28.108Z,13.09
2018-09-24T14:00:28.091Z,12.96
2018-09-24T14:01:28.156Z,12.99
2018-09-24T14:02:28.073Z,12.92
2018-09-24T14:03:28.083Z,12.99
2018-09-24T14:04:28.055Z,12.98
2018-09-24T14:05:28.039Z,12.87
2018-09-24T14:06:28.020Z,12.92
2018-09-24T14:07:28.013Z,12.91
2018-09-24T14:08:28.002Z,12.87
2018-09-24T14:09:27.998Z,12.85
2018-09-24T14:10:27.978Z,12.87
2018-09-24T14:11:27.967Z,12.89
2018-09-24T14:12:27.941Z,12.85
2018-09-24T14:13:27.953Z,12.92
2018-09-24T14:14:27.947Z,12.85
2018-09-24T14:15:27.923Z,12.74
2018-09-24T14:16:27.893Z,12.71
2018-09-24T14:17:27.902Z,12.70
2018-09-24T14:18:27.940Z,12.63
2018-09-24T14:19:28.333Z,12.63
2018-09-24T14:20:27.858Z,12.56
2018-09-24T14:21:27.849Z,12.59
2018-09-24T14:22:27.851Z,12.54
2018-09-24T14:23:27.831Z,12.58
2018-09-24T14:24:27.844Z,12.58
2018-09-24T14:25:27.854Z,12.52
2018-09-24T14:26:27.798Z,12.51
2018-09-24T14:27:27.782Z,12.54
2018-09-24T14:28:27.772Z,12.59
2018-09-24T14:29:27.759Z,12.55
2018-09-24T14:30:27.768Z,12.55
2018-09-24T14:31:27.743Z,12.58
2018-09-24T14:32:27.726Z,12.49
2018-09-24T14:33:27.715Z,12.54
2018-09-24T14:34:27.708Z,12.40
2018-09-24T14:35:27.704Z,12.49
2018-09-24T14:36:27.689Z,12.55
2018-09-24T14:37:27.673Z,12.48
2018-09-24T14:38:27.659Z,12.56
2018-09-24T14:39:27.661Z,12.59
2018-09-24T14:40:27.658Z,12.73
2018-09-24T14:41:27.625Z,12.66
2018-09-24T14:42:27.618Z,12.76
2018-09-24T14:43:27.607Z,12.81
2018-09-24T14:44:27.592Z,12.91
2018-09-24T14:45:27.596Z,12.99
2018-09-24T14:46:27.568Z,12.99
2018-09-24T14:47:27.555Z,13.01
2018-09-24T14:48:27.549Z,12.96
2018-09-24T14:49:27.574Z,13.09
2018-09-24T14:50:27.539Z,13.07
2018-09-24T14:51:27.515Z,13.03
2018-09-24T14:52:27.504Z,12.95
2018-09-24T14:53:27.492Z,12.91
2018-09-24T14:54:27.481Z,12.89
2018-09-24T14:55:27.478Z,12.98
2018-09-24T14:56:27.455Z,12.88
2018-09-24T14:57:27.444Z,12.91
2018-09-24T14:58:27.429Z,12.91
2018-09-24T14:59:27.427Z,12.89
2018-09-24T15:00:27.428Z,12.79
2018-09-24T15:01:27.399Z,12.77
2018-09-24T15:02:27.391Z,12.70
2018-09-24T15:03:27.382Z,12.74
2018-09-24T15:04:27.364Z,12.62
2018-09-24T15:05:27.372Z,12.70
2018-09-24T15:06:27.353Z,12.69
2018-09-24T15:07:27.344Z,12.70
2018-09-24T15:08:27.323Z,12.71
2018-09-24T15:09:27.316Z,12.69
2018-09-24T15:10:27.316Z,12.69
2018-09-24T15:11:27.288Z,12.70
2018-09-24T15:12:28.256Z,12.67
2018-09-24T15:13:28.709Z,12.70
2018-09-24T15:14:27.256Z,12.70
2018-09-24T15:15:27.253Z,12.77
2018-09-24T15:16:27.233Z,12.77
2018-09-24T15:17:27.223Z,12.77
2018-09-24T15:18:27.255Z,12.84
2018-09-24T15:19:27.200Z,12.84
2018-09-24T15:20:27.196Z,12.76
2018-09-24T15:21:27.177Z,12.79
2018-09-24T15:22:27.172Z,12.87
2018-09-24T15:23:27.181Z,12.94
2018-09-24T15:24:27.139Z,12.95
2018-09-24T15:25:27.148Z,12.89
2018-09-24T15:26:27.116Z,12.98
2018-09-24T15:27:27.105Z,12.89
2018-09-24T15:28:27.107Z,12.91
2018-09-24T15:29:27.086Z,12.84
2018-09-24T15:30:27.089Z,12.95
2018-09-24T15:31:27.095Z,12.98
2018-09-24T15:32:27.049Z,13.01
2018-09-24T15:33:27.032Z,12.92
2018-09-24T15:34:27.030Z,12.89
2018-09-24T15:35:27.033Z,12.99
2018-09-24T15:36:27.015Z,12.94
2018-09-24T15:37:26.996Z,12.92
2018-09-24T15:38:26.985Z,13.01
2018-09-24T15:39:26.974Z,12.99
2018-09-24T15:40:26.999Z,12.98
2018-09-24T15:41:26.946Z,12.94
2018-09-24T15:42:26.945Z,12.94
2018-09-24T15:43:27.064Z,12.88
2018-09-24T15:44:26.916Z,12.77
2018-09-24T15:45:26.994Z,12.73
2018-09-24T15:46:26.895Z,12.66
2018-09-24T15:47:26.882Z,12.69
2018-09-24T15:48:26.870Z,12.66
2018-09-24T15:49:26.870Z,12.59
2018-09-24T15:50:26.857Z,12.58
2018-09-24T15:51:26.844Z,12.48
2018-09-24T15:52:26.827Z,12.49
2018-09-24T15:53:26.813Z,12.43
2018-09-24T15:54:26.808Z,12.37
2018-09-24T15:55:26.804Z,12.44
2018-09-24T15:56:26.782Z,12.05
2018-09-24T15:57:26.795Z,11.60
2018-09-24T15:58:26.761Z,11.21
2018-09-24T15:59:26.747Z,10.86
2018-09-24T16:00:26.744Z,10.60
2018-09-24T16:01:26.729Z,10.31
2018-09-24T16:02:26.720Z,9.98
2018-09-24T16:03:26.707Z,9.86
2018-09-24T16:04:26.690Z,9.80
2018-09-24T16:05:26.696Z,9.71
2018-09-24T16:06:26.667Z,9.60
2018-09-24T16:07:26.660Z,9.55
2018-09-24T16:08:26.653Z,9.52
2018-09-24T16:09:26.639Z,9.45
2018-09-24T16:10:26.638Z,9.45
2018-09-24T16:11:26.616Z,9.27
2018-09-24T16:12:26.599Z,9.24
2018-09-24T16:13:26.592Z,9.23
2018-09-24T16:14:26.618Z,9.19
2018-09-24T16:15:26.583Z,9.23
2018-09-24T16:16:26.556Z,9.20
2018-09-24T16:17:26.548Z,9.27
2018-09-24T16:18:26.539Z,9.32
2018-09-24T16:19:26.521Z,9.22
2018-09-24T16:20:26.526Z,9.35
2018-09-24T16:21:26.502Z,9.24
2018-09-24T16:22:26.495Z,9.27
2018-09-24T16:23:26.480Z,9.30
2018-09-24T16:24:26.473Z,9.23
2018-09-24T16:25:26.470Z,9.30
2018-09-24T16:26:26.447Z,9.24
2018-09-24T16:27:26.431Z,9.27
2018-09-24T16:28:26.423Z,9.22
2018-09-24T16:29:26.412Z,9.16
2018-09-24T16:30:26.442Z,9.17
2018-09-24T16:31:26.440Z,9.04
2018-09-24T16:32:26.377Z,8.96
2018-09-24T16:33:26.365Z,8.88
2018-09-24T16:34:26.346Z,8.79
2018-09-24T16:35:26.343Z,8.65
2018-09-24T16:36:26.344Z,8.49
2018-09-24T16:37:26.354Z,8.37
2018-09-24T16:38:26.311Z,8.43
2018-09-24T16:39:26.295Z,8.39
2018-09-24T16:40:26.288Z,8.32
2018-09-24T16:41:26.291Z,8.45
2018-09-24T16:42:26.265Z,8.40
2018-09-24T16:43:26.257Z,8.34
2018-09-24T16:44:26.242Z,8.39
2018-09-24T16:45:26.233Z,8.32
2018-09-24T16:46:26.235Z,8.28
2018-09-24T16:47:26.208Z,8.27
2018-09-24T16:48:26.196Z,8.31
2018-09-24T16:49:26.192Z,8.36
2018-09-24T16:50:26.173Z,8.32
2018-09-24T16:51:26.180Z,8.31
2018-09-24T16:52:26.151Z,8.22
2018-09-24T16:53:26.140Z,8.24
2018-09-24T16:54:26.128Z,8.32
2018-09-24T16:55:26.120Z,8.32
2018-09-24T16:56:26.123Z,8.27
2018-09-24T16:57:26.098Z,8.36
2018-09-24T16:58:26.082Z,8.40
2018-09-24T16:59:26.072Z,8.40
2018-09-24T17:00:26.057Z,8.40
2018-09-24T17:01:26.258Z,8.40
2018-09-24T17:02:26.039Z,8.39
2018-09-24T17:03:26.089Z,8.37